sensor_id;sensor_type;location;lat;lon;timestamp;temperature;humidity
65040;HTU21D;51606;45.000;38.612;2022-10-16T00:00:40;6.75;65.01
65040;HTU21D;51606;45.000;38.612;2022-10-16T00:03:08;6.76;65.04
65040;HTU21D;51606;45.000;38.612;2022-10-16T00:05:39;6.72;65.08
65040;HTU21D;51606;45.000;38.612;2022-10-16T00:08:07;6.68;65.08
65040;HTU21D;51606;45.000;38.612;2022-10-16T00:10:34;6.65;65.14
65040;HTU21D;51606;45.000;38.612;2022-10-16T00:13:01;6.59;65.17
65040;HTU21D;51606;45.000;38.612;2022-10-16T00:15:27;6.56;65.20
65040;HTU21D;51606;45.000;38.612;2022-10-16T00:17:53;6.53;65.20
65040;HTU21D;51606;45.000;38.612;2022-10-16T00:20:20;6.50;65.21
65040;HTU21D;51606;45.000;38.612;2022-10-16T00:22:46;6.48;65.23
65040;HTU21D;51606;45.000;38.612;2022-10-16T00:25:13;6.45;65.26
65040;HTU21D;51606;45.000;38.612;2022-10-16T00:27:39;6.42;65.25
65040;HTU21D;51606;45.000;38.612;2022-10-16T00:30:06;6.40;65.27
65040;HTU21D;51606;45.000;38.612;2022-10-16T00:32:34;6.37;65.27
65040;HTU21D;51606;45.000;38.612;2022-10-16T00:35:00;6.35;65.36
65040;HTU21D;51606;45.000;38.612;2022-10-16T00:37:27;6.35;65.37
65040;HTU21D;51606;45.000;38.612;2022-10-16T00:39:53;6.37;65.39
65040;HTU21D;51606;45.000;38.612;2022-10-16T00:54:01;6.41;65.18
65040;HTU21D;51606;45.000;38.612;2022-10-16T00:56:28;6.43;65.27
65040;HTU21D;51606;45.000;38.612;2022-10-16T00:58:54;6.43;65.30
65040;HTU21D;51606;45.000;38.612;2022-10-16T01:01:21;6.41;65.37
65040;HTU21D;51606;45.000;38.612;2022-10-16T01:03:47;6.40;65.42
65040;HTU21D;51606;45.000;38.612;2022-10-16T01:09:26;6.33;65.55
65040;HTU21D;51606;45.000;38.612;2022-10-16T01:12:14;6.29;65.62
65040;HTU21D;51606;45.000;38.612;2022-10-16T01:15:10;6.21;65.72
65040;HTU21D;51606;45.000;38.612;2022-10-16T01:17:48;6.14;65.85
65040;HTU21D;51606;45.000;38.612;2022-10-16T01:20:37;6.09;65.97
65040;HTU21D;51606;45.000;38.612;2022-10-16T01:23:27;6.04;66.02
65040;HTU21D;51606;45.000;38.612;2022-10-16T01:26:08;5.98;66.09
65040;HTU21D;51606;45.000;38.612;2022-10-16T01:28:49;5.95;66.17
65040;HTU21D;51606;45.000;38.612;2022-10-16T01:31:19;5.93;66.20
65040;HTU21D;51606;45.000;38.612;2022-10-16T01:33:53;5.90;66.24
65040;HTU21D;51606;45.000;38.612;2022-10-16T01:36:28;5.87;66.29
65040;HTU21D;51606;45.000;38.612;2022-10-16T01:38:57;5.84;66.30
65040;HTU21D;51606;45.000;38.612;2022-10-16T01:41:32;5.82;66.29
65040;HTU21D;51606;45.000;38.612;2022-10-16T01:44:06;5.79;66.30
65040;HTU21D;51606;45.000;38.612;2022-10-16T01:46:36;5.76;66.33
65040;HTU21D;51606;45.000;38.612;2022-10-16T01:49:05;5.72;66.36
65040;HTU21D;51606;45.000;38.612;2022-10-16T01:51:33;5.71;66.38
65040;HTU21D;51606;45.000;38.612;2022-10-16T01:54:02;5.69;66.39
65040;HTU21D;51606;45.000;38.612;2022-10-16T01:56:30;5.68;66.40
65040;HTU21D;51606;45.000;38.612;2022-10-16T01:59:10;5.67;66.46
65040;HTU21D;51606;45.000;38.612;2022-10-16T02:01:40;5.65;66.46
65040;HTU21D;51606;45.000;38.612;2022-10-16T02:04:22;5.64;66.52
65040;HTU21D;51606;45.000;38.612;2022-10-16T02:06:50;5.61;66.49
65040;HTU21D;51606;45.000;38.612;2022-10-16T02:09:18;5.60;66.53
65040;HTU21D;51606;45.000;38.612;2022-10-16T02:11:45;5.60;66.56
65040;HTU21D;51606;45.000;38.612;2022-10-16T02:14:11;5.59;66.62
65040;HTU21D;51606;45.000;38.612;2022-10-16T02:16:41;5.57;66.67
65040;HTU21D;51606;45.000;38.612;2022-10-16T02:19:15;5.56;66.72
65040;HTU21D;51606;45.000;38.612;2022-10-16T02:21:54;5.60;66.72
65040;HTU21D;51606;45.000;38.612;2022-10-16T02:24:57;5.62;66.65
65040;HTU21D;51606;45.000;38.612;2022-10-16T02:30:29;5.65;66.56
65040;HTU21D;51606;45.000;38.612;2022-10-16T02:32:58;5.65;66.51
65040;HTU21D;51606;45.000;38.612;2022-10-16T02:35:26;5.65;66.53
65040;HTU21D;51606;45.000;38.612;2022-10-16T02:37:54;5.66;66.59
65040;HTU21D;51606;45.000;38.612;2022-10-16T02:40:21;5.69;66.62
65040;HTU21D;51606;45.000;38.612;2022-10-16T02:42:51;5.74;66.61
65040;HTU21D;51606;45.000;38.612;2022-10-16T02:45:18;5.72;66.61
65040;HTU21D;51606;45.000;38.612;2022-10-16T02:47:45;5.71;66.64
65040;HTU21D;51606;45.000;38.612;2022-10-16T02:50:11;5.68;66.69
65040;HTU21D;51606;45.000;38.612;2022-10-16T02:52:38;5.67;66.76
65040;HTU21D;51606;45.000;38.612;2022-10-16T02:55:04;5.65;66.81
65040;HTU21D;51606;45.000;38.612;2022-10-16T02:57:31;5.64;66.83
65040;HTU21D;51606;45.000;38.612;2022-10-16T02:59:58;5.62;66.90
65040;HTU21D;51606;45.000;38.612;2022-10-16T03:02:24;5.60;66.92
65040;HTU21D;51606;45.000;38.612;2022-10-16T03:04:51;5.57;66.96
65040;HTU21D;51606;45.000;38.612;2022-10-16T03:07:17;5.56;67.00
65040;HTU21D;51606;45.000;38.612;2022-10-16T03:09:43;5.56;67.01
65040;HTU21D;51606;45.000;38.612;2022-10-16T03:12:10;5.57;67.04
65040;HTU21D;51606;45.000;38.612;2022-10-16T07:32:24;17.97;61.38
65040;HTU21D;51606;45.000;38.612;2022-10-16T07:34:52;18.03;61.33
65040;HTU21D;51606;45.000;38.612;2022-10-16T07:37:18;18.15;61.21
65040;HTU21D;51606;45.000;38.612;2022-10-16T07:39:45;18.26;61.18
65040;HTU21D;51606;45.000;38.612;2022-10-16T07:42:11;18.54;60.95
65040;HTU21D;51606;45.000;38.612;2022-10-16T07:44:38;18.85;60.72
65040;HTU21D;51606;45.000;38.612;2022-10-16T07:47:04;19.32;60.57
65040;HTU21D;51606;45.000;38.612;2022-10-16T07:49:31;19.76;59.86
65040;HTU21D;51606;45.000;38.612;2022-10-16T07:51:57;19.79;59.90
65040;HTU21D;51606;45.000;38.612;2022-10-16T07:54:23;19.76;59.94
65040;HTU21D;51606;45.000;38.612;2022-10-16T07:56:50;19.72;60.12
65040;HTU21D;51606;45.000;38.612;2022-10-16T07:59:16;20.10;59.87
65040;HTU21D;51606;45.000;38.612;2022-10-16T08:01:42;20.17;59.68
65040;HTU21D;51606;45.000;38.612;2022-10-16T08:04:09;20.25;59.57
65040;HTU21D;51606;45.000;38.612;2022-10-16T08:06:38;20.31;59.61
65040;HTU21D;51606;45.000;38.612;2022-10-16T08:09:05;20.68;59.37
65040;HTU21D;51606;45.000;38.612;2022-10-16T08:11:32;20.91;58.97
65040;HTU21D;51606;45.000;38.612;2022-10-16T08:13:59;20.99;58.83
65040;HTU21D;51606;45.000;38.612;2022-10-16T08:16:25;20.79;58.91
65040;HTU21D;51606;45.000;38.612;2022-10-16T08:18:52;20.77;59.05
65040;HTU21D;51606;45.000;38.612;2022-10-16T08:21:22;20.60;59.03
65040;HTU21D;51606;45.000;38.612;2022-10-16T08:23:50;20.30;59.27
65040;HTU21D;51606;45.000;38.612;2022-10-16T08:26:17;20.04;59.59
65040;HTU21D;51606;45.000;38.612;2022-10-16T08:28:43;19.87;59.73
65040;HTU21D;51606;45.000;38.612;2022-10-16T08:31:12;19.79;59.72
65040;HTU21D;51606;45.000;38.612;2022-10-16T08:33:41;19.67;59.75
65040;HTU21D;51606;45.000;38.612;2022-10-16T08:36:10;19.79;59.60
65040;HTU21D;51606;45.000;38.612;2022-10-16T08:38:37;19.84;59.37
65040;HTU21D;51606;45.000;38.612;2022-10-16T08:44:04;19.91;59.10
65040;HTU21D;51606;45.000;38.612;2022-10-16T08:49:12;19.81;59.20
65040;HTU21D;51606;45.000;38.612;2022-10-16T08:51:40;19.84;59.11
65040;HTU21D;51606;45.000;38.612;2022-10-16T08:56:48;20.04;58.88
65040;HTU21D;51606;45.000;38.612;2022-10-16T08:59:16;20.32;58.68
65040;HTU21D;51606;45.000;38.612;2022-10-16T09:01:46;20.48;58.48
65040;HTU21D;51606;45.000;38.612;2022-10-16T09:04:39;20.83;58.32
65040;HTU21D;51606;45.000;38.612;2022-10-16T09:09:53;21.51;57.87
65040;HTU21D;51606;45.000;38.612;2022-10-16T09:18:06;22.36;57.42
65040;HTU21D;51606;45.000;38.612;2022-10-16T09:20:51;22.48;57.40
65040;HTU21D;51606;45.000;38.612;2022-10-16T09:23:25;22.42;57.58
65040;HTU21D;51606;45.000;38.612;2022-10-16T09:25:53;22.14;57.65
65040;HTU21D;51606;45.000;38.612;2022-10-16T09:28:20;22.28;57.74
65040;HTU21D;51606;45.000;38.612;2022-10-16T09:30:47;22.55;57.60
65040;HTU21D;51606;45.000;38.612;2022-10-16T09:33:19;22.69;57.11
65040;HTU21D;51606;45.000;38.612;2022-10-16T09:35:49;22.69;57.15
65040;HTU21D;51606;45.000;38.612;2022-10-16T09:38:32;22.90;56.90
65040;HTU21D;51606;45.000;38.612;2022-10-16T09:41:18;22.87;56.14
65040;HTU21D;51606;45.000;38.612;2022-10-16T09:43:53;22.64;56.13
65040;HTU21D;51606;45.000;38.612;2022-10-16T09:46:26;22.51;56.13
65040;HTU21D;51606;45.000;38.612;2022-10-16T09:49:00;22.51;55.75
65040;HTU21D;51606;45.000;38.612;2022-10-16T09:51:32;22.32;55.73
65040;HTU21D;51606;45.000;38.612;2022-10-16T09:54:14;22.20;55.52
65040;HTU21D;51606;45.000;38.612;2022-10-16T09:56:41;21.97;55.81
65040;HTU21D;51606;45.000;38.612;2022-10-16T09:59:13;21.97;55.72
65040;HTU21D;51606;45.000;38.612;2022-10-16T10:01:51;21.98;55.80
65040;HTU21D;51606;45.000;38.612;2022-10-16T10:04:23;22.06;55.58
65040;HTU21D;51606;45.000;38.612;2022-10-16T10:06:55;21.90;55.53
65040;HTU21D;51606;45.000;38.612;2022-10-16T10:09:44;21.70;55.93
65040;HTU21D;51606;45.000;38.612;2022-10-16T10:12:23;21.62;55.94
65040;HTU21D;51606;45.000;38.612;2022-10-16T10:14:56;21.57;56.03
65040;HTU21D;51606;45.000;38.612;2022-10-16T10:17:25;21.62;55.96
65040;HTU21D;51606;45.000;38.612;2022-10-16T10:22:45;21.68;55.80
65040;HTU21D;51606;45.000;38.612;2022-10-16T10:33:45;21.23;56.13
65040;HTU21D;51606;45.000;38.612;2022-10-16T10:39:18;21.02;56.45
65040;HTU21D;51606;45.000;38.612;2022-10-16T10:42:19;21.03;56.39
65040;HTU21D;51606;45.000;38.612;2022-10-16T10:44:55;21.03;56.29
65040;HTU21D;51606;45.000;38.612;2022-10-16T10:48:17;20.94;56.35
65040;HTU21D;51606;45.000;38.612;2022-10-16T10:50:54;20.86;56.47
65040;HTU21D;51606;45.000;38.612;2022-10-16T10:59:32;20.74;56.59
65040;HTU21D;51606;45.000;38.612;2022-10-16T11:02:32;20.73;56.55
65040;HTU21D;51606;45.000;38.612;2022-10-16T11:05:26;20.68;56.61
65040;HTU21D;51606;45.000;38.612;2022-10-16T11:08:00;20.55;56.76
65040;HTU21D;51606;45.000;38.612;2022-10-16T11:10:40;20.43;56.93
65040;HTU21D;51606;45.000;38.612;2022-10-16T11:15:45;20.24;57.10
65040;HTU21D;51606;45.000;38.612;2022-10-16T11:18:46;20.15;57.22
65040;HTU21D;51606;45.000;38.612;2022-10-16T11:21:14;20.11;57.26
65040;HTU21D;51606;45.000;38.612;2022-10-16T11:23:58;20.07;57.32
65040;HTU21D;51606;45.000;38.612;2022-10-16T11:26:32;20.07;57.24
65040;HTU21D;51606;45.000;38.612;2022-10-16T11:29:02;20.13;57.17
65040;HTU21D;51606;45.000;38.612;2022-10-16T11:31:43;20.14;57.11
65040;HTU21D;51606;45.000;38.612;2022-10-16T11:34:23;20.15;57.16
65040;HTU21D;51606;45.000;38.612;2022-10-16T11:37:01;20.15;57.15
65040;HTU21D;51606;45.000;38.612;2022-10-16T11:39:30;20.14;57.14
65040;HTU21D;51606;45.000;38.612;2022-10-16T11:42:21;20.11;57.19
65040;HTU21D;51606;45.000;38.612;2022-10-16T11:45:00;20.03;57.26
65040;HTU21D;51606;45.000;38.612;2022-10-16T11:50:52;19.87;57.48
65040;HTU21D;51606;45.000;38.612;2022-10-16T11:53:07;19.79;57.58
65040;HTU21D;51606;45.000;38.612;2022-10-16T11:55:40;19.77;57.59
65040;HTU21D;51606;45.000;38.612;2022-10-16T11:58:23;19.77;57.59
65040;HTU21D;51606;45.000;38.612;2022-10-16T12:01:05;19.74;57.61
65040;HTU21D;51606;45.000;38.612;2022-10-16T12:03:45;19.67;57.68
65040;HTU21D;51606;45.000;38.612;2022-10-16T12:08:53;19.54;57.80
65040;HTU21D;51606;45.000;38.612;2022-10-16T12:14:59;19.43;57.94
65040;HTU21D;51606;45.000;38.612;2022-10-16T12:17:34;19.37;58.02
65040;HTU21D;51606;45.000;38.612;2022-10-16T12:19:59;19.32;58.06
65040;HTU21D;51606;45.000;38.612;2022-10-16T12:22:28;19.28;58.13
65040;HTU21D;51606;45.000;38.612;2022-10-16T12:24:56;19.27;58.12
65040;HTU21D;51606;45.000;38.612;2022-10-16T12:27:31;19.28;58.13
65040;HTU21D;51606;45.000;38.612;2022-10-16T12:30:00;19.29;58.14
65040;HTU21D;51606;45.000;38.612;2022-10-16T12:34:54;19.26;58.17
65040;HTU21D;51606;45.000;38.612;2022-10-16T12:37:36;19.23;58.28
65040;HTU21D;51606;45.000;38.612;2022-10-16T12:42:52;19.16;58.38
65040;HTU21D;51606;45.000;38.612;2022-10-16T12:45:28;19.16;58.51
65040;HTU21D;51606;45.000;38.612;2022-10-16T12:47:56;19.09;58.53
65040;HTU21D;51606;45.000;38.612;2022-10-16T12:50:32;19.02;58.67
65040;HTU21D;51606;45.000;38.612;2022-10-16T12:53:00;18.95;58.74
65040;HTU21D;51606;45.000;38.612;2022-10-16T12:55:27;18.88;58.87
65040;HTU21D;51606;45.000;38.612;2022-10-16T13:01:17;18.81;59.09
65040;HTU21D;51606;45.000;38.612;2022-10-16T13:12:10;18.63;59.28
65040;HTU21D;51606;45.000;38.612;2022-10-16T13:15:06;18.54;59.44
65040;HTU21D;51606;45.000;38.612;2022-10-16T13:23:36;18.30;59.73
65040;HTU21D;51606;45.000;38.612;2022-10-16T13:26:15;18.24;59.83
65040;HTU21D;51606;45.000;38.612;2022-10-16T13:28:44;18.20;59.88
65040;HTU21D;51606;45.000;38.612;2022-10-16T13:42:55;17.77;60.36
65040;HTU21D;51606;45.000;38.612;2022-10-16T13:45:24;17.67;60.57
65040;HTU21D;51606;45.000;38.612;2022-10-16T13:48:04;17.61;60.83
65040;HTU21D;51606;45.000;38.612;2022-10-16T13:50:31;17.53;60.83
65040;HTU21D;51606;45.000;38.612;2022-10-16T13:53:13;17.48;61.02
65040;HTU21D;51606;45.000;38.612;2022-10-16T13:55:40;17.41;61.02
65040;HTU21D;51606;45.000;38.612;2022-10-16T13:58:13;17.36;61.18
65040;HTU21D;51606;45.000;38.612;2022-10-16T14:00:52;17.31;61.24
65040;HTU21D;51606;45.000;38.612;2022-10-16T14:03:19;17.26;61.34
65040;HTU21D;51606;45.000;38.612;2022-10-16T14:05:52;17.19;61.49
65040;HTU21D;51606;45.000;38.612;2022-10-16T14:08:20;17.11;61.54
65040;HTU21D;51606;45.000;38.612;2022-10-16T14:10:52;17.06;61.72
65040;HTU21D;51606;45.000;38.612;2022-10-16T14:13:28;16.96;61.83
65040;HTU21D;51606;45.000;38.612;2022-10-16T14:15:55;16.89;61.88
65040;HTU21D;51606;45.000;38.612;2022-10-16T14:18:26;16.81;62.04
65040;HTU21D;51606;45.000;38.612;2022-10-16T14:20:54;16.75;62.09
65040;HTU21D;51606;45.000;38.612;2022-10-16T14:23:38;16.70;62.28
65040;HTU21D;51606;45.000;38.612;2022-10-16T14:28:41;16.57;62.33
65040;HTU21D;51606;45.000;38.612;2022-10-16T14:31:32;16.48;62.53
65040;HTU21D;51606;45.000;38.612;2022-10-16T14:33:59;16.37;62.54
65040;HTU21D;51606;45.000;38.612;2022-10-16T14:36:27;16.30;62.67
65040;HTU21D;51606;45.000;38.612;2022-10-16T14:39:01;16.26;62.76
65040;HTU21D;51606;45.000;38.612;2022-10-16T14:41:30;16.17;62.72
65040;HTU21D;51606;45.000;38.612;2022-10-16T14:44:02;16.13;62.83
65040;HTU21D;51606;45.000;38.612;2022-10-16T14:46:35;16.07;62.86
65040;HTU21D;51606;45.000;38.612;2022-10-16T14:49:23;16.02;62.91
65040;HTU21D;51606;45.000;38.612;2022-10-16T14:51:50;15.92;62.86
65040;HTU21D;51606;45.000;38.612;2022-10-16T14:54:18;15.86;62.97
65040;HTU21D;51606;45.000;38.612;2022-10-16T14:56:56;15.81;63.05
65040;HTU21D;51606;45.000;38.612;2022-10-16T14:59:33;15.72;63.18
65040;HTU21D;51606;45.000;38.612;2022-10-16T15:02:01;15.63;63.18
65040;HTU21D;51606;45.000;38.612;2022-10-16T15:04:32;15.57;63.20
65040;HTU21D;51606;45.000;38.612;2022-10-16T15:06:59;15.49;63.30
65040;HTU21D;51606;45.000;38.612;2022-10-16T15:09:25;15.44;63.40
65040;HTU21D;51606;45.000;38.612;2022-10-16T15:11:51;15.38;63.48
65040;HTU21D;51606;45.000;38.612;2022-10-16T15:14:18;15.37;63.47
65040;HTU21D;51606;45.000;38.612;2022-10-16T15:16:44;15.34;63.49
65040;HTU21D;51606;45.000;38.612;2022-10-16T15:19:11;15.31;63.50
65040;HTU21D;51606;45.000;38.612;2022-10-16T15:21:38;15.28;63.56
65040;HTU21D;51606;45.000;38.612;2022-10-16T15:24:09;15.26;63.64
65040;HTU21D;51606;45.000;38.612;2022-10-16T15:26:37;15.23;63.66
65040;HTU21D;51606;45.000;38.612;2022-10-16T15:29:04;15.24;63.69
65040;HTU21D;51606;45.000;38.612;2022-10-16T15:31:31;15.22;63.73
65040;HTU21D;51606;45.000;38.612;2022-10-16T15:33:57;15.18;63.77
65040;HTU21D;51606;45.000;38.612;2022-10-16T15:36:34;15.17;63.78
65040;HTU21D;51606;45.000;38.612;2022-10-16T15:39:04;15.13;63.82
65040;HTU21D;51606;45.000;38.612;2022-10-16T15:41:31;15.12;63.91
65040;HTU21D;51606;45.000;38.612;2022-10-16T15:43:57;15.09;64.00
65040;HTU21D;51606;45.000;38.612;2022-10-16T15:46:24;15.06;64.05
65040;HTU21D;51606;45.000;38.612;2022-10-16T15:48:56;15.07;64.12
65040;HTU21D;51606;45.000;38.612;2022-10-16T15:51:22;15.06;64.08
65040;HTU21D;51606;45.000;38.612;2022-10-16T15:53:49;15.02;64.08
65040;HTU21D;51606;45.000;38.612;2022-10-16T15:56:17;15.01;64.14
65040;HTU21D;51606;45.000;38.612;2022-10-16T15:58:43;14.98;64.17
65040;HTU21D;51606;45.000;38.612;2022-10-16T16:01:10;14.95;64.25
65040;HTU21D;51606;45.000;38.612;2022-10-16T16:03:38;14.93;64.31
65040;HTU21D;51606;45.000;38.612;2022-10-16T16:06:08;14.91;64.40
65040;HTU21D;51606;45.000;38.612;2022-10-16T16:08:35;14.85;64.42
65040;HTU21D;51606;45.000;38.612;2022-10-16T16:11:07;14.83;64.51
65040;HTU21D;51606;45.000;38.612;2022-10-16T16:13:35;14.77;64.55
65040;HTU21D;51606;45.000;38.612;2022-10-16T16:16:12;14.74;64.62
65040;HTU21D;51606;45.000;38.612;2022-10-16T16:18:39;14.71;64.63
65040;HTU21D;51606;45.000;38.612;2022-10-16T16:21:06;14.70;64.63
65040;HTU21D;51606;45.000;38.612;2022-10-16T16:23:33;14.67;64.71
65040;HTU21D;51606;45.000;38.612;2022-10-16T16:26:28;14.68;64.77
65040;HTU21D;51606;45.000;38.612;2022-10-16T16:28:59;14.64;64.72
65040;HTU21D;51606;45.000;38.612;2022-10-16T16:31:28;14.62;64.79
65040;HTU21D;51606;45.000;38.612;2022-10-16T16:33:55;14.59;64.82
65040;HTU21D;51606;45.000;38.612;2022-10-16T16:36:23;14.58;64.88
65040;HTU21D;51606;45.000;38.612;2022-10-16T16:38:49;14.56;64.90
65040;HTU21D;51606;45.000;38.612;2022-10-16T16:41:18;14.55;64.98
65040;HTU21D;51606;45.000;38.612;2022-10-16T16:43:46;14.51;65.01
65040;HTU21D;51606;45.000;38.612;2022-10-16T16:46:14;14.50;65.07
65040;HTU21D;51606;45.000;38.612;2022-10-16T16:48:41;14.50;65.10
65040;HTU21D;51606;45.000;38.612;2022-10-16T16:51:10;14.47;65.18
65040;HTU21D;51606;45.000;38.612;2022-10-16T16:53:44;14.45;65.21
65040;HTU21D;51606;45.000;38.612;2022-10-16T16:56:10;14.45;65.29
65040;HTU21D;51606;45.000;38.612;2022-10-16T16:58:37;14.44;65.33
65040;HTU21D;51606;45.000;38.612;2022-10-16T17:01:04;14.42;65.40
65040;HTU21D;51606;45.000;38.612;2022-10-16T17:03:32;14.39;65.47
65040;HTU21D;51606;45.000;38.612;2022-10-16T17:06:04;14.37;65.56
65040;HTU21D;51606;45.000;38.612;2022-10-16T17:08:31;14.37;65.59
65040;HTU21D;51606;45.000;38.612;2022-10-16T17:10:58;14.38;65.59
65040;HTU21D;51606;45.000;38.612;2022-10-16T17:13:26;14.41;65.64
65040;HTU21D;51606;45.000;38.612;2022-10-16T17:15:53;14.40;65.66
65040;HTU21D;51606;45.000;38.612;2022-10-16T17:18:22;14.42;65.69
65040;HTU21D;51606;45.000;38.612;2022-10-16T17:20:49;14.40;65.72
65040;HTU21D;51606;45.000;38.612;2022-10-16T17:23:17;14.43;65.85
65040;HTU21D;51606;45.000;38.612;2022-10-16T17:25:45;14.44;65.85
65040;HTU21D;51606;45.000;38.612;2022-10-16T17:28:13;14.43;65.91
65040;HTU21D;51606;45.000;38.612;2022-10-16T17:30:40;14.41;66.00
65040;HTU21D;51606;45.000;38.612;2022-10-16T17:33:07;14.40;66.07
65040;HTU21D;51606;45.000;38.612;2022-10-16T17:35:45;14.39;66.21
65040;HTU21D;51606;45.000;38.612;2022-10-16T17:38:13;14.35;66.26
65040;HTU21D;51606;45.000;38.612;2022-10-16T17:40:40;14.33;66.31
65040;HTU21D;51606;45.000;38.612;2022-10-16T17:43:07;14.33;66.38
65040;HTU21D;51606;45.000;38.612;2022-10-16T17:45:36;14.29;66.49
65040;HTU21D;51606;45.000;38.612;2022-10-16T17:48:05;14.26;66.54
65040;HTU21D;51606;45.000;38.612;2022-10-16T17:50:31;14.26;66.61
65040;HTU21D;51606;45.000;38.612;2022-10-16T17:52:58;14.25;66.65
65040;HTU21D;51606;45.000;38.612;2022-10-16T17:55:24;14.22;66.69
65040;HTU21D;51606;45.000;38.612;2022-10-16T17:57:51;14.19;66.73
65040;HTU21D;51606;45.000;38.612;2022-10-16T18:00:18;14.12;66.80
65040;HTU21D;51606;45.000;38.612;2022-10-16T18:02:48;14.06;66.91
65040;HTU21D;51606;45.000;38.612;2022-10-16T18:05:15;13.97;66.96
65040;HTU21D;51606;45.000;38.612;2022-10-16T18:07:41;13.91;67.03
65040;HTU21D;51606;45.000;38.612;2022-10-16T18:10:08;13.86;67.10
65040;HTU21D;51606;45.000;38.612;2022-10-16T18:12:36;13.80;67.14
65040;HTU21D;51606;45.000;38.612;2022-10-16T18:15:03;13.75;67.17
65040;HTU21D;51606;45.000;38.612;2022-10-16T18:17:29;13.70;67.19
